createdAt,value
2023-03-25T00:01:20.337Z,16.28
2023-03-25T00:06:28.117Z,16.23
2023-03-25T00:11:31.699Z,16.15
2023-03-25T00:16:34.944Z,16.14
2023-03-25T00:21:40.058Z,16.11
2023-03-25T00:26:48.869Z,16.09
2023-03-25T00:31:52.803Z,16.09
2023-03-25T00:36:56.790Z,16.08
2023-03-25T00:42:02.466Z,16.02
2023-03-25T00:47:05.865Z,15.94
2023-03-25T00:52:09.655Z,15.89
2023-03-25T00:57:13.580Z,15.89
2023-03-25T01:02:19.169Z,15.90
2023-03-25T01:07:23.362Z,15.94
2023-03-25T01:12:27.415Z,15.95
2023-03-25T01:17:32.363Z,15.96
2023-03-25T01:22:36.199Z,15.97
2023-03-25T01:27:39.836Z,15.97
2023-03-25T01:32:43.297Z,15.95
2023-03-25T01:37:47.129Z,15.95
2023-03-25T01:42:50.899Z,15.94
2023-03-25T01:48:26.298Z,15.91
2023-03-25T01:53:32.460Z,15.90
2023-03-25T01:58:36.552Z,15.88
2023-03-25T02:03:46.350Z,15.87
2023-03-25T02:08:53.005Z,15.85
2023-03-25T02:14:03.007Z,15.82
2023-03-25T02:19:07.111Z,15.78
2023-03-25T02:24:20.219Z,15.76
2023-03-25T02:29:39.649Z,15.75
2023-03-25T02:35:21.693Z,15.72
2023-03-25T02:40:55.925Z,15.70
2023-03-25T02:46:04.179Z,15.72
2023-03-25T02:51:17.991Z,15.71
2023-03-25T02:56:44.910Z,15.67
2023-03-25T03:01:50.825Z,15.68
2023-03-25T03:06:58.209Z,15.66
2023-03-25T03:12:43.045Z,15.62
2023-03-25T03:17:58.442Z,15.64
2023-03-25T03:23:21.322Z,15.62
2023-03-25T03:28:34.832Z,15.64
2023-03-25T03:33:50.958Z,15.65
2023-03-25T03:39:02.045Z,15.63
2023-03-25T03:44:11.255Z,15.62
2023-03-25T03:49:21.330Z,15.60
2023-03-25T03:54:33.490Z,15.60
2023-03-25T03:59:47.958Z,15.56
2023-03-25T04:04:54.083Z,15.55
2023-03-25T04:10:15.040Z,15.51
2023-03-25T04:15:19.305Z,15.47
2023-03-25T04:20:30.041Z,15.42
2023-03-25T04:31:56.452Z,15.35
2023-03-25T04:37:00.117Z,15.31
2023-03-25T04:42:03.888Z,15.25
2023-03-25T04:47:15.181Z,15.16
2023-03-25T04:52:18.950Z,15.04
2023-03-25T04:57:22.472Z,14.93
2023-03-25T05:02:25.794Z,14.84
2023-03-25T05:07:30.228Z,14.73
2023-03-25T05:12:34.083Z,14.62
2023-03-25T05:18:14.357Z,14.57
2023-03-25T05:23:18.290Z,14.57
2023-03-25T05:28:21.713Z,14.54
2023-03-25T05:33:25.254Z,14.48
2023-03-25T05:38:28.730Z,14.42
2023-03-25T05:43:35.934Z,14.41
2023-03-25T05:48:41.702Z,14.40
2023-03-25T05:53:45.807Z,14.41
2023-03-25T05:58:51.189Z,14.42
2023-03-25T06:03:54.614Z,14.40
2023-03-25T06:08:59.004Z,14.38
2023-03-25T06:14:02.954Z,14.37
2023-03-25T06:19:09.702Z,14.36
2023-03-25T06:24:14.155Z,14.34
2023-03-25T06:29:17.589Z,14.33
2023-03-25T06:34:22.619Z,14.32
2023-03-25T06:39:33.943Z,14.31
2023-03-25T06:44:39.916Z,14.34
2023-03-25T06:50:11.539Z,14.33
2023-03-25T06:55:16.348Z,14.34
2023-03-25T07:00:23.776Z,14.39
2023-03-25T07:05:27.908Z,14.37
2023-03-25T07:10:32.662Z,14.37
2023-03-25T07:15:36.406Z,14.40
2023-03-25T07:20:39.841Z,14.44
2023-03-25T07:25:50.043Z,14.45
2023-03-25T07:30:53.523Z,14.50
2023-03-25T07:35:57.073Z,14.49
2023-03-25T07:41:04.644Z,14.44
2023-03-25T07:46:08.004Z,14.47
2023-03-25T07:51:15.002Z,14.51
2023-03-25T07:56:18.269Z,14.59
2023-03-25T08:01:22.090Z,14.65
2023-03-25T08:06:25.660Z,14.73
2023-03-25T08:11:28.994Z,14.83
2023-03-25T08:16:32.404Z,14.91
2023-03-25T08:21:36.471Z,14.98
2023-03-25T08:26:39.867Z,15.00
2023-03-25T08:31:47.145Z,15.05
2023-03-25T08:36:50.893Z,15.07
2023-03-25T08:41:54.907Z,15.09
2023-03-25T08:46:58.319Z,15.16
2023-03-25T08:52:02.196Z,15.17
2023-03-25T08:57:06.323Z,15.29
2023-03-25T09:02:12.366Z,15.45
2023-03-25T09:07:16.173Z,15.58
2023-03-25T09:12:19.762Z,15.73
2023-03-25T09:17:23.283Z,15.82
2023-03-25T09:22:26.858Z,15.96
2023-03-25T09:27:30.308Z,16.12
2023-03-25T09:32:34.613Z,16.29
2023-03-25T09:37:38.094Z,16.45
2023-03-25T09:43:06.558Z,16.55
2023-03-25T09:48:33.612Z,16.56
2023-03-25T09:53:40.868Z,16.64
2023-03-25T09:58:51.068Z,16.75
2023-03-25T10:04:17.532Z,16.86
2023-03-25T10:09:39.042Z,17.04
2023-03-25T10:14:56.881Z,17.24
2023-03-25T10:20:36.938Z,17.39
2023-03-25T10:25:46.206Z,17.55
2023-03-25T10:30:53.816Z,17.78
2023-03-25T10:36:00.372Z,17.96
2023-03-25T10:41:27.849Z,18.02
2023-03-25T10:46:47.868Z,17.96
2023-03-25T10:52:05.017Z,17.79
2023-03-25T10:57:23.351Z,17.70
2023-03-25T11:02:39.821Z,17.76
2023-03-25T11:13:44.657Z,18.12
2023-03-25T11:18:49.686Z,18.43
2023-03-25T11:23:54.606Z,18.51
2023-03-25T11:29:44.765Z,18.54
2023-03-25T11:35:21.838Z,18.70
2023-03-25T11:43:04.701Z,18.97
2023-03-25T11:48:39.394Z,19.01
2023-03-25T11:54:09.314Z,18.91
2023-03-25T11:59:37.064Z,18.66
2023-03-25T12:05:02.300Z,18.34
2023-03-25T12:10:10.299Z,17.85
2023-03-25T12:15:29.758Z,17.34
2023-03-25T12:21:12.001Z,16.90
2023-03-25T12:27:16.410Z,16.48
2023-03-25T12:33:43.112Z,16.10
2023-03-25T12:45:04.453Z,15.59
2023-03-25T12:50:14.267Z,15.49
2023-03-25T12:55:35.983Z,15.46
2023-03-25T13:01:23.143Z,15.58
2023-03-25T13:06:35.132Z,15.99
2023-03-25T13:11:59.266Z,16.19
2023-03-25T13:17:11.021Z,16.30
2023-03-25T13:22:20.121Z,16.70
2023-03-25T13:27:23.869Z,17.02
2023-03-25T13:32:34.756Z,17.19
2023-03-25T13:37:53.634Z,17.11
2023-03-25T13:43:07.045Z,16.87
2023-03-25T13:48:37.467Z,16.62
2023-03-25T13:54:25.740Z,16.84
2023-03-25T13:59:52.222Z,17.08
2023-03-25T14:05:35.289Z,17.13
2023-03-25T14:11:33.827Z,17.10
2023-03-25T14:16:43.258Z,17.03
2023-03-25T14:21:52.397Z,16.94
2023-03-25T14:27:06.077Z,16.87
2023-03-25T14:32:10.011Z,16.82
2023-03-25T14:37:21.894Z,16.75
2023-03-25T14:42:29.384Z,16.67
2023-03-25T14:47:35.767Z,16.62
2023-03-25T14:52:45.975Z,16.61
2023-03-25T14:57:52.702Z,16.59
2023-03-25T15:03:10.860Z,16.61
2023-03-25T15:08:18.019Z,16.58
2023-03-25T15:13:27.627Z,16.48
2023-03-25T15:18:37.406Z,16.44
2023-03-25T15:24:02.412Z,16.43
2023-03-25T15:29:32.687Z,16.38
2023-03-25T15:35:01.045Z,16.40
2023-03-25T15:43:15.397Z,16.32
2023-03-25T15:48:46.942Z,16.14
2023-03-25T15:54:04.185Z,15.94
2023-03-25T15:59:33.063Z,15.84
2023-03-25T16:04:42.460Z,15.72
2023-03-25T16:09:50.072Z,15.60
2023-03-25T16:14:53.725Z,15.49
2023-03-25T16:19:58.543Z,15.33
2023-03-25T16:25:27.313Z,15.20
2023-03-25T16:30:42.142Z,15.05
2023-03-25T16:36:10.433Z,14.96
2023-03-25T16:42:49.472Z,14.90
2023-03-25T16:47:55.276Z,14.88
2023-03-25T16:53:03.282Z,14.93
2023-03-25T16:58:16.710Z,14.95
2023-03-25T17:03:41.031Z,14.87
2023-03-25T17:08:48.838Z,14.80
2023-03-25T17:13:58.446Z,14.73
2023-03-25T17:19:04.710Z,14.67
2023-03-25T17:24:24.488Z,14.68
2023-03-25T17:29:30.598Z,14.67
2023-03-25T17:34:43.048Z,14.61
2023-03-25T17:43:09.088Z,14.51
2023-03-25T17:48:17.706Z,14.48
2023-03-25T17:53:22.121Z,14.48
2023-03-25T17:58:26.311Z,14.45
2023-03-25T19:05:32.085Z,14.08
2023-03-25T19:10:46.333Z,14.07
2023-03-25T19:15:50.362Z,14.05
2023-03-25T19:20:54.691Z,14.03
2023-03-25T19:26:01.323Z,14.01
2023-03-25T19:31:06.909Z,13.97
2023-03-25T19:36:19.186Z,13.94
2023-03-25T19:42:50.107Z,13.89
2023-03-25T19:47:54.511Z,13.85
2023-03-25T19:53:06.315Z,13.81
2023-03-25T19:58:11.684Z,13.81
2023-03-25T20:03:22.603Z,13.77
2023-03-25T20:08:27.242Z,13.72
2023-03-25T20:13:30.885Z,13.65
2023-03-25T20:18:34.146Z,13.61
2023-03-25T20:23:37.840Z,13.63
2023-03-25T20:28:41.202Z,13.66
2023-03-25T20:33:45.221Z,13.71
2023-03-25T20:38:57.178Z,13.75
2023-03-25T20:44:01.772Z,13.75
2023-03-25T20:49:09.091Z,13.75
2023-03-25T20:54:17.376Z,13.72
2023-03-25T20:59:21.070Z,13.72
2023-03-25T21:04:25.080Z,13.71
2023-03-25T21:09:28.670Z,13.68
2023-03-25T21:14:32.181Z,13.71
2023-03-25T21:19:35.579Z,13.76
2023-03-25T21:24:38.900Z,13.77
2023-03-25T21:29:42.189Z,13.77
2023-03-25T21:34:45.595Z,13.75
2023-03-25T21:39:50.588Z,13.64
2023-03-25T21:44:53.759Z,13.54
2023-03-25T21:49:57.216Z,13.45
2023-03-25T21:55:01.060Z,13.34
2023-03-25T22:00:06.112Z,13.26
2023-03-25T22:05:17.100Z,13.24
2023-03-25T22:10:20.721Z,13.18
2023-03-25T22:15:24.110Z,13.13
2023-03-25T22:20:27.572Z,13.03
2023-03-25T22:25:31.274Z,12.94
2023-03-25T22:30:35.527Z,12.81
2023-03-25T22:35:38.936Z,12.72
2023-03-25T22:40:45.264Z,12.61
2023-03-25T22:45:48.842Z,12.57
2023-03-25T22:50:52.202Z,12.45
2023-03-25T22:55:56.951Z,12.33
2023-03-25T23:01:03.149Z,12.25
2023-03-25T23:06:08.193Z,12.20
2023-03-25T23:11:24.227Z,12.22
2023-03-25T23:16:31.037Z,12.13
2023-03-25T23:21:34.774Z,12.08
2023-03-25T23:26:40.525Z,12.07
2023-03-25T23:31:44.689Z,12.10
2023-03-25T23:36:48.227Z,12.14
2023-03-25T23:41:52.006Z,12.17
2023-03-25T23:46:56.138Z,12.18
2023-03-25T23:52:00.499Z,12.19
2023-03-25T23:57:04.141Z,12.18
